Time;durP1;ratioP1;P1;durP2;ratioP2;P2;SDS_P1;SDS_P2;PMS_P1;PMS_P2;Temp;Humidity;BMP_temperature;BMP_pressure;BME280_temperature;BME280_humidity;BME280_pressure;Samples;Min_cycle;Max_cycle;Signal;HPM_P1;HPM_P2
2022/04/10 00:00:18;;;;;;;8.23;4.28;;;;;;;;;;4999246;28;20049;-59
2022/04/10 00:02:44;;;;;;;7.07;4.38;;;;;;;;;;4997155;28;20034;-60
2022/04/10 00:05:10;;;;;;;8.57;3.85;;;;;;;;;;5005092;28;20159;-60
2022/04/10 00:07:36;;;;;;;8.15;4.32;;;;;;;;;;5005992;28;20552;-60
2022/04/10 00:10:02;;;;;;;7.95;3.85;;;;;;;;;;4999450;28;20034;-60
2022/04/10 00:12:29;;;;;;;9.20;4.30;;;;;;;;;;4983892;28;20654;-60
2022/04/10 00:14:55;;;;;;;8.15;4.00;;;;;;;;;;5003367;28;20697;-60
2022/04/10 00:17:21;;;;;;;8.50;4.38;;;;;;;;;;5001510;28;20022;-60
2022/04/10 00:19:47;;;;;;;11.02;4.65;;;;;;;;;;5003029;28;20460;-60
2022/04/10 00:22:13;;;;;;;9.00;4.45;;;;;;;;;;5003138;28;20110;-60
2022/04/10 00:24:39;;;;;;;10.55;4.70;;;4.20;99.90;;;;;;5005096;28;20105;-60
2022/04/10 00:27:05;;;;;;;10.43;4.55;;;4.20;99.90;;;;;;5001179;28;20033;-60
2022/04/10 00:29:31;;;;;;;12.95;5.20;;;4.00;99.90;;;;;;5006800;28;20478;-60
2022/04/10 00:31:57;;;;;;;11.15;5.00;;;4.20;99.90;;;;;;5005687;28;20124;-59
2022/04/10 00:34:22;;;;;;;10.27;4.38;;;4.10;99.90;;;;;;5005895;28;20105;-60
2022/04/10 00:36:48;;;;;;;10.75;4.50;;;4.20;99.90;;;;;;5004574;28;20474;-59
2022/04/10 00:39:13;;;;;;;13.20;4.70;;;4.10;99.90;;;;;;4989022;28;20029;-58
2022/04/10 00:41:39;;;;;;;8.55;4.53;;;4.00;99.90;;;;;;4996783;28;20031;-60
2022/04/10 00:44:10;;;;;;;12.48;5.40;;;4.10;99.90;;;;;;5010683;28;20038;-59
2022/04/10 00:46:36;;;;;;;11.80;4.70;;;4.10;99.90;;;;;;4996584;28;20034;-59
2022/04/10 00:49:03;;;;;;;15.65;4.82;;;4.20;99.90;;;;;;4999666;28;20022;-60
2022/04/10 00:51:43;;;;;;;10.07;4.82;;;4.10;99.90;;;;;;4966644;28;20422;-60
2022/04/10 00:54:16;;;;;;;7.68;4.22;;;4.10;99.90;;;;;;5003685;28;20033;-59
2022/04/10 00:56:42;;;;;;;7.95;4.38;;;4.00;99.90;;;;;;4995087;28;20058;-60
2022/04/10 00:59:08;;;;;;;10.18;4.70;;;3.90;99.90;;;;;;4998257;28;20022;-58
2022/04/10 01:01:35;;;;;;;9.80;4.65;;;;;;;;;;5002369;28;20045;-59
2022/04/10 01:04:02;;;;;;;10.77;4.70;;;;;;;;;;5003358;28;20033;-60
2022/04/10 01:06:28;;;;;;;12.68;4.63;;;;;;;;;;5000539;28;20260;-60
2022/04/10 01:08:54;;;;;;;8.18;4.30;;;;;;;;;;5003926;28;20034;-59
2022/04/10 01:11:20;;;;;;;10.63;4.80;;;;;;;;;;4997955;28;20034;-60
2022/04/10 01:13:46;;;;;;;8.32;4.47;;;;;;;;;;5006500;28;20110;-60
2022/04/10 01:16:12;;;;;;;9.38;4.78;;;;;;;;;;5010568;28;20156;-58
2022/04/10 01:18:40;;;;;;;12.20;4.20;;;;;;;;;;5008119;28;20109;-60
2022/04/10 01:21:06;;;;;;;11.55;4.82;;;;;;;;;;5010091;28;20033;-60
2022/04/10 01:23:32;;;;;;;11.38;5.10;;;;;;;;;;5008608;28;20046;-59
2022/04/10 01:25:58;;;;;;;11.68;4.40;;;;;;;;;;5011281;28;20069;-60
2022/04/10 01:28:24;;;;;;;12.02;4.55;;;;;;;;;;5011590;28;20119;-60
2022/04/10 01:30:50;;;;;;;9.15;4.72;;;;;;;;;;5011466;28;20060;-60
2022/04/10 01:33:16;;;;;;;8.05;4.45;;;;;;;;;;5005771;28;20025;-59
2022/04/10 01:35:42;;;;;;;12.50;5.13;;;;;;;;;;5010439;28;20109;-60
2022/04/10 01:38:10;;;;;;;11.85;4.30;;;;;;;;;;5009389;28;20033;-60
2022/04/10 01:40:37;;;;;;;12.15;4.00;;;;;;;;;;5012838;28;20018;-60
2022/04/10 01:43:03;;;;;;;7.80;4.10;;;;;;;;;;5011355;28;20026;-58
2022/04/10 01:45:29;;;;;;;11.55;4.40;;;;;;;;;;5006025;28;20030;-60
2022/04/10 01:47:55;;;;;;;14.45;4.15;;;;;;;;;;5007305;28;20029;-60
2022/04/10 01:50:22;;;;;;;15.25;5.05;;;;;;;;;;5012785;28;20644;-60
2022/04/10 01:52:48;;;;;;;9.05;4.13;;;;;;;;;;5010614;28;20485;-59
2022/04/10 01:55:14;;;;;;;8.73;4.47;;;;;;;;;;5004602;28;20018;-60
2022/04/10 01:57:40;;;;;;;12.60;4.90;;;;;;;;;;5009365;28;20022;-60
2022/04/10 02:00:06;;;;;;;8.80;4.85;;;;;;;;;;4991674;28;20022;-60
2022/04/10 02:02:32;;;;;;;11.57;4.90;;;;;;;;;;5011623;28;20037;-59
2022/04/10 02:04:58;;;;;;;10.80;5.35;;;;;;;;;;5007698;28;20033;-60
2022/04/10 02:07:24;;;;;;;14.23;4.82;;;;;;;;;;5009175;28;20107;-59
2022/04/10 02:09:50;;;;;;;10.43;5.43;;;;;;;;;;5006946;28;20030;-60
2022/04/10 02:12:16;;;;;;;9.93;5.25;;;;;;;;;;5002776;28;20026;-58
2022/04/10 02:14:42;;;;;;;11.82;5.18;;;;;;;;;;5001655;28;20026;-60
2022/04/10 02:17:08;;;;;;;13.80;5.68;;;;;;;;;;5001943;28;20061;-61
2022/04/10 02:19:34;;;;;;;15.73;5.60;;;;;;;;;;5007327;28;20421;-59
2022/04/10 02:22:01;;;;;;;13.25;4.75;;;;;;;;;;5010931;28;20056;-60
2022/04/10 02:24:27;;;;;;;9.75;4.78;;;;;;;;;;5005623;28;20048;-59
2022/04/10 02:26:53;;;;;;;10.02;4.95;;;;;;;;;;5004710;28;20057;-59
2022/04/10 02:29:19;;;;;;;8.57;4.63;;;;;;;;;;4999824;28;20070;-60
2022/04/10 02:31:45;;;;;;;11.55;4.60;;;;;;;;;;4988615;28;20446;-60
2022/04/10 02:34:11;;;;;;;10.88;4.57;;;;;;;;;;5003281;28;20093;-60
2022/04/10 02:36:37;;;;;;;12.07;4.78;;;;;;;;;;5005314;28;20048;-60
2022/04/10 02:39:03;;;;;;;12.20;5.15;;;;;;;;;;5000663;28;20026;-60
2022/04/10 02:41:29;;;;;;;11.32;4.60;;;;;;;;;;5007758;28;20049;-58
2022/04/10 02:43:55;;;;;;;12.48;4.55;;;;;;;;;;5007624;28;20057;-60
2022/04/10 02:46:21;;;;;;;12.38;4.95;;;;;;;;;;5003979;28;20418;-60
2022/04/10 02:48:46;;;;;;;11.50;4.75;;;;;;;;;;4990861;28;20037;-59
2022/04/10 02:51:12;;;;;;;11.45;5.07;;;;;;;;;;5004022;28;20076;-60
2022/04/10 02:53:38;;;;;;;11.80;5.28;;;;;;;;;;5004717;28;20057;-60
2022/04/10 02:56:04;;;;;;;13.77;4.72;;;;;;;;;;5006951;28;20025;-60
2022/04/10 02:58:30;;;;;;;9.43;4.90;;;;;;;;;;5001817;28;20049;-60
2022/04/10 03:00:56;;;;;;;13.05;5.10;;;;;;;;;;4987120;28;20516;-60
2022/04/10 03:03:22;;;;;;;9.02;4.82;;;;;;;;;;4990495;28;20456;-60
2022/04/10 03:05:48;;;;;;;10.80;5.30;;;;;;;;;;5006666;28;20504;-60
2022/04/10 03:08:14;;;;;;;13.73;5.60;;;;;;;;;;5001744;28;20402;-60
2022/04/10 03:10:40;;;;;;;11.52;5.35;;;;;;;;;;5000505;28;20505;-60
2022/04/10 03:13:06;;;;;;;13.30;6.00;;;;;;;;;;5006192;28;20045;-60
2022/04/10 03:15:32;;;;;;;12.10;5.70;;;;;;;;;;4998572;28;20030;-61
2022/04/10 03:17:58;;;;;;;11.38;5.22;;;;;;;;;;4986106;28;20053;-60
2022/04/10 03:20:24;;;;;;;8.65;4.93;;;;;;;;;;5003347;28;20061;-60
2022/04/10 03:22:50;;;;;;;9.25;4.63;;;;;;;;;;5006542;28;20025;-61
2022/04/10 03:25:16;;;;;;;10.43;4.88;;;;;;;;;;4998614;28;20101;-59
2022/04/10 03:27:42;;;;;;;7.80;4.43;;;;;;;;;;4997420;28;20034;-60
2022/04/10 03:30:08;;;;;;;9.63;5.00;;;;;;;;;;5001411;28;20027;-60
2022/04/10 03:32:34;;;;;;;9.63;4.88;;;;;;;;;;5004190;28;20025;-61
2022/04/10 03:35:00;;;;;;;12.43;5.03;;;;;;;;;;5002764;28;20028;-60
2022/04/10 03:37:26;;;;;;;10.23;4.88;;;;;;;;;;4983520;28;20031;-61
2022/04/10 03:39:52;;;;;;;16.00;5.68;;;;;;;;;;5003210;28;20022;-60
2022/04/10 03:42:18;;;;;;;12.52;5.68;;;;;;;;;;5001957;28;20085;-60
2022/04/10 03:44:44;;;;;;;10.75;5.95;;;;;;;;;;5005832;28;20056;-61
2022/04/10 03:47:10;;;;;;;11.82;5.22;;;;;;;;;;4999924;28;20661;-60
2022/04/10 03:49:36;;;;;;;10.63;4.72;;;;;;;;;;5004130;28;20034;-60
2022/04/10 03:52:02;;;;;;;11.45;5.00;;;;;;;;;;5004879;28;20371;-60
2022/04/10 03:54:28;;;;;;;10.10;5.43;;;;;;;;;;5003906;28;20022;-61
2022/04/10 03:56:54;;;;;;;12.38;5.20;;;;;;;;;;4986984;28;20041;-60
2022/04/10 03:59:20;;;;;;;11.57;5.70;;;;;;;;;;5003481;28;20022;-60
2022/04/10 04:01:46;;;;;;;10.30;5.22;;;;;;;;;;5002580;28;20036;-60
2022/04/10 04:04:12;;;;;;;10.57;5.65;;;;;;;;;;5003587;28;20105;-61
2022/04/10 04:06:38;;;;;;;13.30;4.95;;;;;;;;;;4998917;28;20045;-61
2022/04/10 04:09:04;;;;;;;9.63;5.13;;;;;;;;;;5000723;28;20087;-61
2022/04/10 04:11:30;;;;;;;11.35;6.22;;;;;;;;;;4997129;28;20053;-61
2022/04/10 04:13:56;;;;;;;10.43;5.28;;;;;;;;;;5005447;28;20089;-61
2022/04/10 04:16:22;;;;;;;12.63;5.97;;;;;;;;;;4998894;28;20034;-61
2022/04/10 04:18:48;;;;;;;11.93;5.63;;;;;;;;;;5004837;28;20026;-61
2022/04/10 04:21:14;;;;;;;11.65;5.88;;;;;;;;;;4981290;28;20022;-61
2022/04/10 04:23:40;;;;;;;11.38;6.03;;;;;;;;;;4998825;28;20365;-61
2022/04/10 04:26:06;;;;;;;11.35;6.20;;;;;;;;;;5004794;28;20408;-61
2022/04/10 04:28:35;;;;;;;12.38;6.63;;;;;;;;;;5004685;28;20385;-60
2022/04/10 04:31:01;;;;;;;11.90;5.88;;;;;;;;;;4980041;28;20057;-61
2022/04/10 04:33:27;;;;;;;13.13;6.45;;;;;;;;;;5001438;28;20026;-61
2022/04/10 04:35:53;;;;;;;15.25;7.05;;;;;;;;;;4987104;28;20475;-61
2022/04/10 04:38:19;;;;;;;14.60;6.72;;;;;;;;;;5006308;28;20034;-60
2022/04/10 04:40:45;;;;;;;15.73;7.13;;;;;;;;;;5004318;28;20121;-60
2022/04/10 04:43:11;;;;;;;15.93;6.85;;;;;;;;;;5004043;28;20454;-61
2022/04/10 04:45:37;;;;;;;17.20;6.68;;;;;;;;;;5004025;28;20018;-61
2022/04/10 04:48:03;;;;;;;14.60;7.03;;;;;;;;;;5003269;28;20495;-60
2022/04/10 04:50:29;;;;;;;12.68;6.97;;;;;;;;;;5001351;28;20105;-61
2022/04/10 04:52:55;;;;;;;15.80;7.18;;;;;;;;;;4997857;28;20551;-61
2022/04/10 04:55:21;;;;;;;15.07;7.57;;;;;;;;;;5001021;28;20097;-61
2022/04/10 04:57:47;;;;;;;13.57;7.93;;;;;;;;;;5002123;28;20036;-60
2022/04/10 05:00:13;;;;;;;14.90;7.30;;;;;;;;;;4998579;28;20010;-59
2022/04/10 05:02:39;;;;;;;19.80;7.53;;;;;;;;;;4997467;28;20087;-60
2022/04/10 05:05:05;;;;;;;17.73;8.05;;;;;;;;;;5004581;28;20034;-60
2022/04/10 05:07:31;;;;;;;17.77;7.97;;;;;;;;;;4998280;28;20088;-61
2022/04/10 05:09:57;;;;;;;12.70;7.25;;;;;;;;;;4998790;28;20034;-60
2022/04/10 05:12:23;;;;;;;15.38;7.18;;;;;;;;;;5003827;28;20065;-60
2022/04/10 05:14:49;;;;;;;16.20;7.63;;;;;;;;;;5004917;28;20084;-60
2022/04/10 05:17:15;;;;;;;16.25;7.70;;;;;;;;;;5000419;28;20041;-61
2022/04/10 05:19:41;;;;;;;14.57;6.90;;;;;;;;;;5005239;28;20422;-61
2022/04/10 05:22:07;;;;;;;15.32;7.68;;;;;;;;;;5004780;28;20686;-60
2022/04/10 05:24:33;;;;;;;17.20;7.38;;;;;;;;;;5005721;28;20057;-60
2022/04/10 05:26:59;;;;;;;13.27;6.90;;;;;;;;;;5002619;28;20596;-61
2022/04/10 05:29:25;;;;;;;16.45;7.88;;;;;;;;;;5000624;28;20040;-61
2022/04/10 05:31:51;;;;;;;14.18;7.10;;;;;;;;;;4999316;28;20030;-59
2022/04/10 05:34:20;;;;;;;15.13;7.65;;;;;;;;;;5000026;28;20021;-60
2022/04/10 05:36:46;;;;;;;19.65;9.32;;;;;;;;;;5006329;28;20022;-60
2022/04/10 05:39:12;;;;;;;16.20;8.25;;;;;;;;;;4985369;28;20457;-58
2022/04/10 05:41:38;;;;;;;20.88;9.27;;;;;;;;;;5000722;28;20100;-61
2022/04/10 05:44:04;;;;;;;16.48;8.65;;;;;;;;;;5005200;28;20026;-60
2022/04/10 05:46:30;;;;;;;17.35;9.10;;;;;;;;;;5003915;28;20080;-60
2022/04/10 05:48:56;;;;;;;20.73;9.00;;;;;;;;;;5005183;28;20045;-59
2022/04/10 05:51:22;;;;;;;16.52;8.80;;;;;;;;;;5004161;28;20044;-60
2022/04/10 05:53:48;;;;;;;20.85;9.82;;;;;;;;;;5005887;28;20037;-60
2022/04/10 05:56:14;;;;;;;20.70;10.48;;;;;;;;;;4999657;28;20084;-60
2022/04/10 05:58:40;;;;;;;17.23;9.23;;;;;;;;;;5000611;28;20026;-60
2022/04/10 06:01:06;;;;;;;18.98;9.45;;;;;;;;;;5002366;28;20037;-61
2022/04/10 06:03:32;;;;;;;20.00;9.70;;;;;;;;;;5010249;28;20049;-60
2022/04/10 06:05:58;;;;;;;19.05;9.77;;;;;;;;;;5007243;28;20018;-60
2022/04/10 06:08:24;;;;;;;20.08;10.18;;;;;;;;;;5007776;28;20029;-59
2022/04/10 06:10:50;;;;;;;18.52;9.65;;;;;;;;;;5002265;28;20466;-60
2022/04/10 06:13:16;;;;;;;18.00;9.68;;;;;;;;;;5003895;28;20052;-61
2022/04/10 06:15:42;;;;;;;20.00;9.80;;;;;;;;;;5004091;28;20109;-61
2022/04/10 06:18:08;;;;;;;18.90;10.75;;;;;;;;;;5008338;28;20381;-61
2022/04/10 06:20:34;;;;;;;15.35;9.02;;;;;;;;;;4997705;28;20014;-62
2022/04/10 06:23:00;;;;;;;17.52;9.40;;;;;;;;;;5003047;28;20026;-62
2022/04/10 06:25:26;;;;;;;18.58;9.05;;;;;;;;;;5009082;28;20065;-61
2022/04/10 06:27:52;;;;;;;15.95;9.10;;;;;;;;;;5002624;28;20104;-62
2022/04/10 06:30:18;;;;;;;14.88;9.07;;;;;;;;;;5002615;28;20474;-61
2022/04/10 06:32:44;;;;;;;16.13;9.55;;;;;;;;;;5001246;28;20052;-61
2022/04/10 06:35:10;;;;;;;16.20;9.25;;;;;;;;;;4986171;28;20635;-61
2022/04/10 06:37:38;;;;;;;18.63;9.80;;;;;;;;;;5000975;28;20022;-61
2022/04/10 06:40:04;;;;;;;20.52;9.95;;;;;;;;;;4988438;28;20068;-61
2022/04/10 06:42:30;;;;;;;18.10;9.13;;;;;;;;;;5001999;28;20030;-61
2022/04/10 06:44:56;;;;;;;18.45;9.25;;;;;;;;;;5008158;28;20030;-61
2022/04/10 06:47:22;;;;;;;18.88;9.70;;;;;;;;;;5001710;28;20030;-61
2022/04/10 06:49:48;;;;;;;21.05;9.07;;;;;;;;;;4995965;28;20402;-61
2022/04/10 06:52:14;;;;;;;18.65;9.50;;;;;;;;;;5001197;28;20650;-61
2022/04/10 06:54:40;;;;;;;15.88;8.15;;;;;;;;;;5006065;28;20016;-61
2022/04/10 06:57:06;;;;;;;17.95;8.95;;;;;;;;;;5003278;28;20363;-61
2022/04/10 06:59:32;;;;;;;20.40;9.43;;;;;;;;;;5005294;28;20076;-61
2022/04/10 07:01:58;;;;;;;14.35;8.23;;;;;;;;;;5002847;28;20038;-61
2022/04/10 07:04:24;;;;;;;15.40;8.13;;;;;;;;;;5003268;28;20026;-60
2022/04/10 07:06:50;;;;;;;15.35;8.32;;;;;;;;;;5006273;28;20033;-61
2022/04/10 07:09:16;;;;;;;17.30;7.57;;;;;;;;;;5005997;28;20465;-61
2022/04/10 07:11:43;;;;;;;15.27;7.78;;;;;;;;;;5005569;28;20072;-61
2022/04/10 07:14:09;;;;;;;14.13;7.97;;;;;;;;;;5005431;28;20113;-61
2022/04/10 07:16:35;;;;;;;13.90;7.80;;;;;;;;;;5002587;28;20235;-61
2022/04/10 07:19:01;;;;;;;15.25;8.60;;;;;;;;;;5004303;28;20621;-61
2022/04/10 07:24:12;;;;;;;17.85;7.38;;;;;;;;;;5004050;28;20106;-61
2022/04/10 07:26:38;;;;;;;17.48;7.22;;;;;;;;;;5002250;28;20033;-61
2022/04/10 07:29:04;;;;;;;16.63;7.75;;;;;;;;;;5006110;28;20022;-62
2022/04/10 07:31:30;;;;;;;12.57;6.97;;;;;;;;;;5003914;28;20063;-61
2022/04/10 07:33:56;;;;;;;17.40;7.05;;;;;;;;;;5006464;28;20524;-60
2022/04/10 07:36:22;;;;;;;9.65;6.50;;;;;;;;;;5000652;28;20024;-61
2022/04/10 07:38:48;;;;;;;13.88;6.70;;;;;;;;;;4999238;28;20026;-61
2022/04/10 07:41:14;;;;;;;10.93;6.13;;;;;;;;;;5000801;28;20068;-61
2022/04/10 07:43:40;;;;;;;12.55;6.00;;;;;;;;;;5004136;28;20434;-61
2022/04/10 07:48:50;;;;;;;12.48;6.32;;;;;;;;;;4998612;28;20061;-61
2022/04/10 07:51:16;;;;;;;10.77;5.82;;;;;;;;;;4999671;28;20054;-61
2022/04/10 07:53:42;;;;;;;12.30;6.20;;;;;;;;;;5005072;28;20030;-62
2022/04/10 07:56:09;;;;;;;13.82;5.60;;;;;;;;;;5002551;28;20034;-61
2022/04/10 07:58:37;;;;;;;12.13;6.22;;;;;;;;;;5005156;28;20026;-62
2022/04/10 08:01:03;;;;;;;13.32;6.32;;;;;;;;;;4999977;28;20426;-61
2022/04/10 08:03:29;;;;;;;12.95;6.43;;;;;;;;;;5000717;28;20031;-61
2022/04/10 08:05:55;;;;;;;15.50;6.95;;;;;;;;;;4994500;28;20616;-61
2022/04/10 08:08:22;;;;;;;11.50;6.55;;;;;;;;;;5000578;28;20022;-61
2022/04/10 08:10:48;;;;;;;10.07;5.28;;;;;;;;;;4981468;28;20129;-61
2022/04/10 08:13:14;;;;;;;9.35;5.40;;;;;;;;;;5006859;28;20660;-61
2022/04/10 08:15:40;;;;;;;10.90;5.68;;;;;;;;;;5005757;28;20033;-61
2022/04/10 08:18:08;;;;;;;16.65;5.63;;;;;;;;;;5001100;28;20054;-61
2022/04/10 08:20:35;;;;;;;9.18;4.85;;;;;;;;;;5001487;28;20018;-61
2022/04/10 08:23:01;;;;;;;11.43;4.82;;;;;;;;;;5002431;28;20493;-61
2022/04/10 08:25:27;;;;;;;16.05;4.60;;;;;;;;;;5002179;28;20026;-61
2022/04/10 08:27:53;;;;;;;8.40;3.88;;;;;;;;;;4999466;28;20409;-61
2022/04/10 08:30:19;;;;;;;9.50;3.97;;;;;;;;;;4992347;28;20496;-61
2022/04/10 08:32:45;;;;;;;13.95;4.18;;;;;;;;;;4997746;28;20041;-61
2022/04/10 08:35:12;;;;;;;7.32;2.83;;;;;;;;;;5000039;28;20030;-61
2022/04/10 08:37:38;;;;;;;11.75;4.05;;;;;;;;;;5000596;28;20026;-62
2022/04/10 08:40:05;;;;;;;13.68;3.03;;;;;;;;;;5000447;28;20030;-62
2022/04/10 08:42:31;;;;;;;8.57;3.78;;;;;;;;;;4999817;28;20413;-62
2022/04/10 08:44:58;;;;;;;12.20;3.20;;;;;;;;;;5000436;28;20456;-61
2022/04/10 08:47:24;;;;;;;8.95;3.63;;;;;;;;;;5002067;28;20034;-61
2022/04/10 08:49:50;;;;;;;12.43;3.80;;;;;;;;;;4996907;28;20045;-61
2022/04/10 08:52:17;;;;;;;9.60;4.00;;;;;;;;;;5000915;28;20482;-62
2022/04/10 08:54:44;;;;;;;11.05;4.63;;;;;;;;;;5005568;28;20104;-61
2022/04/10 08:57:10;;;;;;;8.63;3.40;;;;;;;;;;5002090;28;20033;-62
2022/04/10 08:59:36;;;;;;;8.98;2.75;;;;;;;;;;4999459;28;20037;-62
2022/04/10 09:02:02;;;;;;;8.82;2.50;;;;;;;;;;4999432;28;20390;-62
2022/04/10 09:04:29;;;;;;;8.95;2.50;;;;;;;;;;4999710;28;20026;-61
2022/04/10 09:07:09;;;;;;;8.65;2.80;;;;;;;;;;5001087;28;20481;-61
2022/04/10 09:09:36;;;;;;;8.77;3.28;;;;;;;;;;5002439;28;20402;-60
2022/04/10 09:12:02;;;;;;;7.38;2.67;;;;;;;;;;5000224;28;20030;-61
2022/04/10 09:14:29;;;;;;;6.13;2.53;;;;;;;;;;5000543;28;20034;-61
2022/04/10 09:17:14;;;;;;;6.78;2.20;;;;;;;;;;5000203;28;20193;-62
2022/04/10 09:19:44;;;;;;;8.50;2.38;;;;;;;;;;4999168;28;20457;-61
2022/04/10 09:22:28;;;;;;;7.35;2.25;;;;;;;;;;5003465;28;20560;-61
2022/04/10 09:25:14;;;;;;;6.38;2.20;;;;;;;;;;5000805;28;20088;-61
2022/04/10 09:27:44;;;;;;;8.73;2.75;;;;;;;;;;5001261;28;20037;-62
2022/04/10 09:30:11;;;;;;;5.78;1.95;;;;;;;;;;5000659;28;20026;-61
2022/04/10 09:32:38;;;;;;;9.73;2.50;;;;;;;;;;4998780;28;20030;-61
2022/04/10 09:35:04;;;;;;;11.43;2.78;;;;;;;;;;4986569;28;20029;-61
2022/04/10 09:37:33;;;;;;;13.68;2.67;;;;;;;;;;5001504;28;20508;-62
2022/04/10 09:40:17;;;;;;;12.20;2.60;;;;;;;;;;5005971;28;20030;-61
2022/04/10 09:42:43;;;;;;;7.60;2.70;;;;;;;;;;5005313;28;20026;-61
2022/04/10 09:45:29;;;;;;;5.00;2.20;;;;;;;;;;5003948;28;20542;-62
2022/04/10 09:47:55;;;;;;;5.70;2.55;;;;;;;;;;5002041;28;20378;-61
2022/04/10 09:50:31;;;;;;;11.07;3.05;;;;;;;;;;5007831;28;20060;-62
2022/04/10 09:52:58;;;;;;;14.98;2.85;;;;;;;;;;5003117;28;20025;-62
2022/04/10 09:55:33;;;;;;;9.10;2.40;;;;;;;;;;5006956;28;20178;-61
2022/04/10 09:58:01;;;;;;;8.30;2.50;;;;;;;;;;5000103;28;20252;-61
2022/04/10 10:00:27;;;;;;;9.52;2.63;;;;;;;;;;5006219;28;20054;-61
2022/04/10 10:02:54;;;;;;;9.52;2.50;;;;;;;;;;5005032;28;20441;-61
2022/04/10 10:05:20;;;;;;;5.68;2.08;;;;;;;;;;5003496;28;20390;-61
2022/04/10 10:07:48;;;;;;;6.80;2.22;;;;;;;;;;5006696;28;20565;-61
2022/04/10 10:10:16;;;;;;;7.22;1.98;;;;;;;;;;5001259;28;20033;-62
2022/04/10 10:12:42;;;;;;;7.05;2.50;;;;;;;;;;5006659;28;20049;-61
2022/04/10 10:15:09;;;;;;;10.73;2.50;;;;;;;;;;5000476;28;20096;-62
2022/04/10 10:17:36;;;;;;;6.55;1.73;;;;;;;;;;5002875;28;20054;-61
2022/04/10 10:20:03;;;;;;;5.55;1.63;;;;;;;;;;4988106;28;20064;-61
2022/04/10 10:22:29;;;;;;;5.13;1.70;;;;;;;;;;5003225;28;20026;-61
2022/04/10 10:25:00;;;;;;;4.90;1.45;;;;;;;;;;5003435;28;20064;-61
2022/04/10 10:27:51;;;;;;;5.88;1.75;;;;;;;;;;5004965;28;20091;-61
2022/04/10 10:30:32;;;;;;;5.38;1.90;;;;;;;;;;5000990;28;20428;-62
2022/04/10 10:33:10;;;;;;;6.00;1.55;;;;;;;;;;5004167;28;20435;-61
2022/04/10 10:35:40;;;;;;;5.35;1.52;;;;;;;;;;5001221;28;20525;-61
2022/04/10 10:38:26;;;;;;;5.88;1.88;;;;;;;;;;5001161;28;20026;-62
2022/04/10 10:40:53;;;;;;;4.47;1.67;;;;;;;;;;5001628;28;20026;-62
2022/04/10 10:43:28;;;;;;;3.88;1.40;;;;;;;;;;5001234;28;20080;-62
2022/04/10 10:45:54;;;;;;;5.40;1.73;;;;;;;;;;5001592;28;20472;-62
2022/04/10 10:48:23;;;;;;;5.65;1.60;;;;;;;;;;4999696;28;20223;-61
2022/04/10 10:50:53;;;;;;;7.65;1.70;;;;;;;;;;5003210;28;20099;-62
2022/04/10 10:53:38;;;;;;;5.47;1.65;;;;;;;;;;5005028;28;20025;-62
2022/04/10 10:56:05;;;;;;;6.53;1.30;;;;;;;;;;4982470;28;20037;-61
2022/04/10 10:58:32;;;;;;;3.83;1.30;;;;;;;;;;5005556;28;20503;-62
2022/04/10 11:01:04;;;;;;;4.97;1.45;;;;;;;;;;5001740;28;20022;-62
2022/04/10 11:03:30;;;;;;;5.27;1.07;;;;;;;;;;5002744;28;20053;-62
2022/04/10 11:06:06;;;;;;;6.10;1.38;;;;;;;;;;4987081;28;20470;-61
2022/04/10 11:08:39;;;;;;;3.83;1.20;;;;;;;;;;5005583;28;20030;-61
2022/04/10 11:11:07;;;;;;;4.13;1.20;;;;;;;;;;4984130;28;20045;-62
2022/04/10 11:13:42;;;;;;;3.42;1.10;;;;;;;;;;4987038;28;20036;-62
2022/04/10 11:16:10;;;;;;;10.35;1.45;;;;;;;;;;5003813;28;20029;-61
2022/04/10 11:18:41;;;;;;;2.60;0.80;;;;;;;;;;5001457;28;21745;-62
2022/04/10 11:21:15;;;;;;;5.82;1.20;;;;;;;;;;5005175;28;20029;-61
2022/04/10 11:23:45;;;;;;;5.93;1.27;;;;;;;;;;5004221;28;20022;-61
2022/04/10 11:26:22;;;;;;;4.10;1.40;;;;;;;;;;4998348;28;20405;-61
2022/04/10 11:29:07;;;;;;;5.63;1.42;;;;;;;;;;5000480;28;20034;-61
2022/04/10 11:31:39;;;;;;;5.35;1.00;;;;;;;;;;5002540;28;20092;-62
2022/04/10 11:34:08;;;;;;;3.75;1.20;;;;;;;;;;5003734;28;20032;-62
2022/04/10 11:36:52;;;;;;;4.95;1.60;;;;;;;;;;4997331;28;20050;-62
2022/04/10 11:39:33;;;;;;;4.88;1.15;;;;;;;;;;5002316;28;20018;-61
2022/04/10 11:42:03;;;;;;;4.20;1.30;;;;;;;;;;4999621;28;20589;-62
2022/04/10 11:44:29;;;;;;;4.68;0.98;;;;;;;;;;4998534;28;20070;-61
2022/04/10 11:46:55;;;;;;;5.82;1.10;;;;;;;;;;5003755;28;20120;-61
2022/04/10 11:49:21;;;;;;;2.50;1.00;;;;;;;;;;5003824;28;20437;-62
2022/04/10 11:51:51;;;;;;;2.38;0.90;;;;;;;;;;4983976;28;20029;-62
2022/04/10 11:54:28;;;;;;;2.88;0.90;;;;;;;;;;4990143;28;20026;-62
2022/04/10 11:56:54;;;;;;;3.10;0.88;;;;;;;;;;5001734;28;20022;-61
2022/04/10 11:59:20;;;;;;;4.35;1.20;;;;;;;;;;5001688;28;20018;-62
2022/04/10 12:01:48;;;;;;;6.30;1.10;;;;;;;;;;4984797;28;20072;-61
2022/04/10 12:04:16;;;;;;;6.40;1.38;;;;;;;;;;5001565;28;20027;-62
2022/04/10 12:06:41;;;;;;;2.60;1.00;;;;;;;;;;5001900;28;20049;-62
2022/04/10 12:09:08;;;;;;;3.20;1.08;;;;;;;;;;4999004;28;20049;-62
2022/04/10 12:11:38;;;;;;;5.32;1.40;;;;;;;;;;4998024;28;20115;-62
2022/04/10 12:14:24;;;;;;;4.75;1.30;;;;;;;;;;5001441;28;20167;-62
2022/04/10 12:16:52;;;;;;;3.63;1.13;;;;;;;;;;4995600;28;20046;-61
2022/04/10 12:19:29;;;;;;;7.20;1.50;;;;;;;;;;5002732;28;20219;-62
2022/04/10 12:21:55;;;;;;;7.78;1.67;;;;;;;;;;5002961;28;20026;-62
2022/04/10 12:24:21;;;;;;;4.13;1.13;;;;;;;;;;4999875;28;20037;-62
2022/04/10 12:26:47;;;;;;;4.40;0.93;;;;;;;;;;4999576;28;20033;-62
2022/04/10 12:29:14;;;;;;;2.95;0.95;;;;;;;;;;5002818;28;20537;-62
2022/04/10 12:31:45;;;;;;;4.40;1.10;;;;;;;;;;5003507;28;20617;-62
2022/04/10 12:34:13;;;;;;;2.47;1.20;;;;;;;;;;4998694;28;20026;-62
2022/04/10 12:36:46;;;;;;;3.38;1.23;;;;;;;;;;4999174;28;20099;-62
2022/04/10 12:39:22;;;;;;;6.13;1.13;;;;;;;;;;5002641;28;20258;-62
2022/04/10 12:41:57;;;;;;;3.92;1.10;;;;;;;;;;4998855;28;20539;-62
2022/04/10 12:44:25;;;;;;;5.57;1.45;;;;;;;;;;5001424;28;20037;-62
2022/04/10 12:46:51;;;;;;;2.47;1.17;;;;;;;;;;5001609;28;20574;-62
2022/04/10 12:49:18;;;;;;;4.47;1.33;;;;;;;;;;4999116;28;20034;-61
2022/04/10 12:51:52;;;;;;;5.28;1.58;;;;;;;;;;4998707;28;20041;-62
2022/04/10 12:54:19;;;;;;;23.20;17.35;;;;;;;;;;5001741;28;20105;-62
2022/04/10 12:56:44;;;;;;;6.57;3.78;;;;;;;;;;4999653;28;20026;-62
2022/04/10 12:59:11;;;;;;;2.38;1.13;;;;;;;;;;4999776;28;20023;-61
2022/04/10 13:01:37;;;;;;;5.70;1.27;;;;;;;;;;4999343;28;20033;-62
2022/04/10 13:04:03;;;;;;;5.80;1.30;;;;;;;;;;5000099;28;20458;-61
2022/04/10 13:06:50;;;;;;;3.97;1.15;;;;;;;;;;4999871;28;20040;-62
2022/04/10 13:09:16;;;;;;;3.13;1.23;;;;;;;;;;4997583;28;20076;-62
2022/04/10 13:11:42;;;;;;;4.53;1.42;;;;;;;;;;5001369;28;20034;-62
2022/04/10 13:14:11;;;;;;;3.25;1.35;;;;;;;;;;5003223;28;20037;-62
2022/04/10 13:16:38;;;;;;;4.63;1.80;;;;;;;;;;5001914;28;20025;-62
2022/04/10 13:19:05;;;;;;;6.47;1.40;;;;;;;;;;5002331;28;20040;-62
2022/04/10 13:21:31;;;;;;;3.45;1.23;;;;;;;;;;5002564;28;20069;-61
2022/04/10 13:23:57;;;;;;;3.00;1.25;;;;;;;;;;5001056;28;20018;-61
2022/04/10 13:26:30;;;;;;;1.35;0.88;;;;;;;;;;4997213;28;20133;-61
2022/04/10 13:28:56;;;;;;;;;;;;;;;;;;5000675;28;20171;-62
2022/04/10 13:31:22;;;;;;;3.42;1.20;;;;;;;;;;5000115;28;19909;-62
2022/04/10 13:33:48;;;;;;;5.13;1.15;;;;;;;;;;4999538;28;20029;-61
2022/04/10 13:36:15;;;;;;;3.85;1.00;;;;;;;;;;5000260;28;20033;-62
2022/04/10 13:38:41;;;;;;;3.35;1.20;;;;;;;;;;5001336;28;20037;-62
2022/04/10 13:41:07;;;;;;;6.20;1.33;;;;;;;;;;4997266;28;20041;-62
2022/04/10 13:43:33;;;;;;;4.20;1.40;;;;;;;;;;5001491;28;20022;-62
2022/04/10 13:45:59;;;;;;;3.88;1.60;;;;;;;;;;4997195;28;20025;-62
2022/04/10 13:48:25;;;;;;;2.00;1.10;;;;;;;;;;5001576;28;20025;-62
2022/04/10 13:50:51;;;;;;;3.40;1.17;;;;;;;;;;4995937;28;20021;-62
2022/04/10 13:53:17;;;;;;;2.92;1.30;;;;;;;;;;5000729;28;20563;-62
2022/04/10 13:55:43;;;;;;;1.70;1.17;;;;;;;;;;5002853;28;20140;-62
2022/04/10 13:58:09;;;;;;;4.97;1.50;;;;;;;;;;5002363;28;20437;-62
2022/04/10 14:00:35;;;;;;;4.22;1.30;;;;;;;;;;4993734;28;20104;-62
2022/04/10 14:03:02;;;;;;;3.05;1.00;;;;;;;;;;4998051;28;20038;-62
2022/04/10 14:05:28;;;;;;;2.45;1.25;;;;;;;;;;4985664;28;20465;-61
2022/04/10 14:07:54;;;;;;;4.88;1.45;;;;;;;;;;5000350;28;20492;-61
2022/04/10 14:10:20;;;;;;;3.90;1.10;;;;;;;;;;4995687;28;20022;-62
2022/04/10 14:12:46;;;;;;;5.00;1.25;;;;;;;;;;5001099;28;20084;-61
2022/04/10 14:15:12;;;;;;;2.78;1.13;;;;;;;;;;4997846;28;20026;-61
2022/04/10 14:17:38;;;;;;;2.63;0.90;;;;;;;;;;4999544;28;20030;-61
2022/04/10 14:20:04;;;;;;;4.60;1.17;;;;;;;;;;5001128;28;20105;-62
2022/04/10 14:22:30;;;;;;;2.67;0.80;;;;;;;;;;5002956;28;20057;-62
2022/04/10 14:24:56;;;;;;;3.72;0.90;;;;;;;;;;4999236;28;20115;-61
2022/04/10 14:27:22;;;;;;;3.05;1.00;;;;;;;;;;4999102;28;20026;-62
2022/04/10 14:29:48;;;;;;;4.35;1.13;;;;;;;;;;5002152;28;20032;-61
2022/04/10 14:32:14;;;;;;;3.05;1.30;;;;;;;;;;4999735;28;20026;-61
2022/04/10 14:34:40;;;;;;;2.60;1.00;;;;;;;;;;5004701;28;20409;-61
2022/04/10 14:37:07;;;;;;;3.30;1.23;;;;;;;;;;5003040;28;20030;-61